Weather History for KMMH - April, 2013

Change the Weather History Date:

Friday, April 19, 2013

  Actual Average Record
Temperature  
Mean Temperature 44 °F -  
Max Temperature 64 °F 51 °F 71 °F (2012)
Min Temperature 24 °F 38 °F 24 °F (2013)
Degree Days  
Heating Degree Days 21    
Moisture  
Dew Point 20 °F    
Average Humidity 41    
Maximum Humidity 69    
Minimum Humidity 15    
Precipitation  
Precipitation 0.00 in - - ()
Sea Level Pressure  
Sea Level Pressure 30.28 in    
Wind  
Wind Speed 5 mph (NW)    
Max Wind Speed 22 mph    
Max Gust Speed 31 mph    
Visibility 10 miles    
Events      
Averages and records for this station are not official NWS values.
T = Trace of Precipitation, MM = Missing Value Source: NWS Daily Summary

Daily Weather History Graph

Daily Weather History Graph

Search for Another Location

Airport or City:

Trip Planner

Search our weather history database for the weather conditions in past years. The results will help you decide how hot, cold, wet, or windy it might be!

Date:

Astronomy

Apr. 19, 2013 Rise Set
Actual Time 6:14 AM PDT 7:34 PM PDT
Civil Twilight 5:47 AM PDT 8:02 PM PDT
Nautical Twilight 5:14 AM PDT 8:35 PM PDT
Astronomical Twilight 4:40 AM PDT 9:09 PM PDT
Moon 1:30 PM PDT (4/19) 2:25 AM PDT (4/19)
Length of Visible Light 14h 15m
Length of Day
13h 20m
Waxing Gibbous, 62% of the Moon is Illuminated
Apr 19
Waxing Gibbous
Apr 25
Full
May 2
Last Quarter
May 9
New
May 17
First Quarter

Hourly Weather History & Observations

Time (PDT) Temp. Windchill Dew Point Humidity Pressure Visibility Wind Dir Wind Speed Gust Speed Precip Events Conditions
12:15 AM 32.0 °F 28.7 °F 17.6 °F 55% 30.36 in 10.0 mi NW 3.5 mph - N/A   Clear
12:35 AM 30.2 °F 25.4 °F 17.6 °F 60% 30.37 in 10.0 mi North 4.6 mph - N/A   Clear
12:55 AM 30.2 °F 25.4 °F 17.6 °F 60% 30.38 in 10.0 mi NW 4.6 mph - N/A   Clear
1:15 AM 30.2 °F 26.7 °F 17.6 °F 60% 30.37 in 10.0 mi NW 3.5 mph - N/A   Clear
1:35 AM 28.4 °F 23.3 °F 17.6 °F 64% 30.37 in 10.0 mi West 4.6 mph - N/A   Clear
1:55 AM 28.4 °F 24.6 °F 17.6 °F 64% 30.37 in 10.0 mi NW 3.5 mph - N/A   Clear
2:15 AM 28.4 °F 23.3 °F 17.6 °F 64% 30.36 in 10.0 mi NNE 4.6 mph - N/A   Clear
2:35 AM 28.4 °F 24.6 °F 15.8 °F 59% 30.35 in 10.0 mi NNW 3.5 mph - N/A   Clear
2:55 AM 28.4 °F - 17.6 °F 64% 30.34 in 10.0 mi Calm Calm - N/A   Clear
3:15 AM 30.2 °F 23.4 °F 17.6 °F 60% 30.34 in 10.0 mi West 6.9 mph - N/A   Clear
3:35 AM 28.4 °F 24.6 °F 17.6 °F 64% 30.33 in 10.0 mi NNW 3.5 mph - N/A   Clear
3:55 AM 28.4 °F 24.6 °F 17.6 °F 64% 30.33 in 10.0 mi NNE 3.5 mph - N/A   Clear
4:15 AM 28.4 °F - 17.6 °F 64% 30.33 in 10.0 mi Calm Calm - N/A   Clear
4:35 AM 28.4 °F 24.6 °F 17.6 °F 64% 30.32 in 10.0 mi NNW 3.5 mph - N/A   Clear
4:55 AM 26.6 °F - 17.6 °F 69% 30.33 in 10.0 mi Calm Calm - N/A   Clear
5:15 AM 26.6 °F - 17.6 °F 69% 30.33 in 10.0 mi Calm Calm - N/A   Clear
5:35 AM 26.6 °F 22.6 °F 15.8 °F 64% 30.33 in 10.0 mi NNE 3.5 mph - N/A   Clear
5:55 AM 24.8 °F 20.5 °F 15.8 °F 69% 30.33 in 10.0 mi North 3.5 mph - N/A   Clear
6:15 AM 30.2 °F 25.4 °F 17.6 °F 60% 30.34 in 10.0 mi NW 4.6 mph - N/A   Clear
6:35 AM 26.6 °F 21.2 °F 17.6 °F 69% 30.34 in 10.0 mi North 4.6 mph - N/A   Clear
6:55 AM 26.6 °F - 17.6 °F 69% 30.34 in 10.0 mi Calm Calm - N/A   Clear
7:35 AM 35.6 °F 30.7 °F 19.4 °F 52% 30.35 in 10.0 mi West 5.8 mph - N/A   Clear
7:55 AM 39.2 °F 35.9 °F 19.4 °F 45% 30.35 in 10.0 mi NW 4.6 mph - N/A   Clear
8:15 AM 41.0 °F 37.1 °F 19.4 °F 42% 30.34 in 10.0 mi ESE 5.8 mph - N/A   Clear
8:35 AM 42.8 °F 40.1 °F 19.4 °F 39% 30.33 in 10.0 mi SE 4.6 mph - N/A   Clear
8:55 AM 44.6 °F 41.4 °F 19.4 °F 37% 30.33 in 10.0 mi SE 5.8 mph - N/A   Clear
9:15 AM 46.4 °F 43.5 °F 19.4 °F 34% 30.32 in 10.0 mi SSE 5.8 mph - N/A   Clear
9:35 AM 50.0 °F - 19.4 °F 30% 30.32 in 10.0 mi SSE 6.9 mph - N/A   Clear
9:55 AM 50.0 °F - 19.4 °F 30% 30.31 in 10.0 mi North - - N/A   Clear
10:15 AM 51.8 °F - 19.4 °F 28% 30.31 in 10.0 mi Calm Calm - N/A   Clear
10:35 AM 53.6 °F - 17.6 °F 24% 30.31 in 10.0 mi North - - N/A   Scattered Clouds
10:55 AM 55.4 °F - 17.6 °F 23% 30.31 in 10.0 mi South 3.5 mph - N/A   Scattered Clouds
11:15 AM 55.4 °F - 17.6 °F 23% 30.31 in 10.0 mi Calm Calm - N/A   Scattered Clouds
11:35 AM 59.0 °F - 17.6 °F 20% 30.31 in 10.0 mi East 3.5 mph - N/A   Clear
11:55 AM 60.8 °F - 17.6 °F 19% 30.30 in 10.0 mi East 3.5 mph - N/A   Clear
12:15 PM 60.8 °F - 14.0 °F 16% 30.30 in 10.0 mi North 8.1 mph 20.7 mph N/A   Clear
12:35 PM 60.8 °F - 14.0 °F 16% 30.29 in 10.0 mi NNE 10.4 mph 19.6 mph N/A   Clear
12:55 PM 60.8 °F - 14.0 °F 16% 30.28 in 10.0 mi NNW 11.5 mph - N/A   Clear
1:15 PM 60.8 °F - 14.0 °F 16% 30.27 in 10.0 mi North 5.8 mph - N/A   Clear
1:35 PM 62.6 °F - 15.8 °F 16% 30.26 in 10.0 mi West 11.5 mph - N/A   Clear
1:55 PM 62.6 °F - 14.0 °F 15% 30.26 in 10.0 mi North - - N/A   Clear
2:15 PM 62.6 °F - 14.0 °F 15% 30.25 in 10.0 mi North - - N/A   Clear
2:35 PM 62.6 °F - 14.0 °F 15% 30.25 in 10.0 mi NW 16.1 mph 21.9 mph N/A   Clear
2:55 PM 62.6 °F - 15.8 °F 16% 30.24 in 10.0 mi North - - N/A   Clear
3:15 PM 62.6 °F - 15.8 °F 16% 30.23 in 10.0 mi WNW 16.1 mph 31.1 mph N/A   Clear
3:35 PM 64.4 °F - 15.8 °F 15% 30.22 in 10.0 mi North - - N/A   Clear
3:55 PM 62.6 °F - 17.6 °F 18% 30.21 in 10.0 mi North - - N/A   Clear
4:15 PM 62.6 °F - 19.4 °F 19% 30.20 in 10.0 mi North - - N/A   Clear
4:35 PM 62.6 °F - 19.4 °F 19% 30.20 in 10.0 mi North - - N/A   Clear
4:55 PM 62.6 °F - 19.4 °F 19% 30.20 in 10.0 mi North - - N/A   Clear
5:15 PM 60.8 °F - 23.0 °F 23% 30.20 in 10.0 mi North - - N/A   Clear
5:35 PM 60.8 °F - 23.0 °F 23% 30.20 in 10.0 mi North - - N/A   Clear
5:55 PM 60.8 °F - 23.0 °F 23% 30.20 in 10.0 mi West 21.9 mph - N/A   Clear
6:15 PM 59.0 °F - 21.2 °F 23% 30.20 in 10.0 mi North - - N/A   Clear
6:35 PM 59.0 °F - 19.4 °F 22% 30.20 in 10.0 mi North - - N/A   Clear
6:55 PM 57.2 °F - 17.6 °F 21% 30.19 in 10.0 mi North - - N/A   Clear
7:15 PM 55.4 °F - 19.4 °F 25% 30.19 in 10.0 mi West 15.0 mph 21.9 mph N/A   Clear
7:35 PM 53.6 °F - 19.4 °F 26% 30.19 in 10.0 mi WNW 12.7 mph - N/A   Clear
7:55 PM 50.0 °F - 24.8 °F 37% 30.19 in 10.0 mi WNW 16.1 mph - N/A   Clear
8:15 PM 48.2 °F - 30.2 °F 50% 30.20 in 10.0 mi WNW 12.7 mph 20.7 mph N/A   Clear
8:35 PM 48.2 °F - 30.2 °F 50% 30.20 in 10.0 mi WNW 12.7 mph 20.7 mph N/A   Clear
8:55 PM 46.4 °F 41.9 °F 30.2 °F 53% 30.21 in 10.0 mi NW 9.2 mph - N/A   Clear
9:15 PM 44.6 °F 39.7 °F 30.2 °F 57% 30.22 in 10.0 mi West 9.2 mph - N/A   Clear
9:35 PM 44.6 °F 39.2 °F 30.2 °F 57% 30.22 in 10.0 mi West 10.4 mph - N/A   Clear
9:55 PM 42.8 °F 38.0 °F 28.4 °F 57% 30.22 in 10.0 mi WNW 8.1 mph - N/A   Clear
10:15 PM 42.8 °F 37.5 °F 28.4 °F 57% 30.22 in 10.0 mi WNW 9.2 mph - N/A   Clear
10:35 PM 41.0 °F 36.4 °F 28.4 °F 61% 30.22 in 10.0 mi WNW 6.9 mph - N/A   Clear
10:55 PM 41.0 °F 37.1 °F 26.6 °F 57% 30.21 in 10.0 mi WNW 5.8 mph - N/A   Clear
11:15 PM 39.2 °F 35.9 °F 26.6 °F 61% 30.21 in 10.0 mi NW 4.6 mph - N/A   Clear
11:35 PM 37.4 °F - 26.6 °F 65% 30.21 in 10.0 mi Calm Calm - N/A   Clear
11:55 PM 39.2 °F 37.0 °F 26.6 °F 61% 30.21 in 10.0 mi WSW 3.5 mph - N/A   Clear